sensor_id;sensor_type;location;lat;lon;timestamp;temperature;humidity
24904;DHT22;12960;50.322;11.124;2022-07-10T00:00:44;14.30;1.00
24904;DHT22;12960;50.322;11.124;2022-07-10T00:01:49;14.30;1.00
24904;DHT22;12960;50.322;11.124;2022-07-10T00:02:50;14.30;1.00
24904;DHT22;12960;50.322;11.124;2022-07-10T00:03:53;14.30;1.00
24904;DHT22;12960;50.322;11.124;2022-07-10T00:04:55;14.20;1.00
24904;DHT22;12960;50.322;11.124;2022-07-10T00:05:56;14.10;50.40
24904;DHT22;12960;50.322;11.124;2022-07-10T00:06:57;14.10;23.60
24904;DHT22;12960;50.322;11.124;2022-07-10T00:08:02;14.10;30.80
24904;DHT22;12960;50.322;11.124;2022-07-10T00:09:03;14.10;81.00
24904;DHT22;12960;50.322;11.124;2022-07-10T00:10:04;14.10;76.50
24904;DHT22;12960;50.322;11.124;2022-07-10T00:11:06;14.10;1.00
24904;DHT22;12960;50.322;11.124;2022-07-10T00:12:07;14.10;1.00
24904;DHT22;12960;50.322;11.124;2022-07-10T00:13:08;14.10;1.00
24904;DHT22;12960;50.322;11.124;2022-07-10T00:14:09;14.10;1.00
24904;DHT22;12960;50.322;11.124;2022-07-10T00:15:11;14.10;1.00
24904;DHT22;12960;50.322;11.124;2022-07-10T00:16:12;14.10;1.00
24904;DHT22;12960;50.322;11.124;2022-07-10T00:17:13;14.10;1.00
24904;DHT22;12960;50.322;11.124;2022-07-10T00:18:14;14.10;1.00
24904;DHT22;12960;50.322;11.124;2022-07-10T00:19:15;14.10;1.00
24904;DHT22;12960;50.322;11.124;2022-07-10T00:20:16;14.10;1.00
24904;DHT22;12960;50.322;11.124;2022-07-10T00:21:17;14.20;1.00
24904;DHT22;12960;50.322;11.124;2022-07-10T00:22:18;14.20;1.00
24904;DHT22;12960;50.322;11.124;2022-07-10T00:23:19;14.10;1.00
24904;DHT22;12960;50.322;11.124;2022-07-10T00:24:20;14.10;1.00
24904;DHT22;12960;50.322;11.124;2022-07-10T00:25:21;14.10;1.00
24904;DHT22;12960;50.322;11.124;2022-07-10T00:26:22;14.10;1.00
24904;DHT22;12960;50.322;11.124;2022-07-10T00:27:23;14.10;1.00
24904;DHT22;12960;50.322;11.124;2022-07-10T00:28:24;14.00;1.00
24904;DHT22;12960;50.322;11.124;2022-07-10T00:29:26;14.00;1.00
24904;DHT22;12960;50.322;11.124;2022-07-10T00:30:27;13.90;1.00
24904;DHT22;12960;50.322;11.124;2022-07-10T00:31:28;13.80;1.00
24904;DHT22;12960;50.322;11.124;2022-07-10T00:32:29;13.80;65.50
24904;DHT22;12960;50.322;11.124;2022-07-10T00:33:30;13.80;34.10
24904;DHT22;12960;50.322;11.124;2022-07-10T00:34:32;13.70;48.40
24904;DHT22;12960;50.322;11.124;2022-07-10T00:35:34;13.70;13.70
24904;DHT22;12960;50.322;11.124;2022-07-10T00:36:35;13.70;34.40
24904;DHT22;12960;50.322;11.124;2022-07-10T00:37:36;13.60;82.50
24904;DHT22;12960;50.322;11.124;2022-07-10T00:38:37;13.60;99.90
24904;DHT22;12960;50.322;11.124;2022-07-10T00:39:38;13.60;99.90
24904;DHT22;12960;50.322;11.124;2022-07-10T00:40:39;13.60;99.90
24904;DHT22;12960;50.322;11.124;2022-07-10T00:41:40;13.50;99.90
24904;DHT22;12960;50.322;11.124;2022-07-10T00:42:44;13.50;99.90
24904;DHT22;12960;50.322;11.124;2022-07-10T00:43:59;13.50;99.90
24904;DHT22;12960;50.322;11.124;2022-07-10T00:45:00;13.50;99.90
24904;DHT22;12960;50.322;11.124;2022-07-10T00:46:01;13.40;99.90
24904;DHT22;12960;50.322;11.124;2022-07-10T00:47:04;13.40;99.90
24904;DHT22;12960;50.322;11.124;2022-07-10T00:48:05;13.30;99.90
24904;DHT22;12960;50.322;11.124;2022-07-10T00:49:06;13.30;99.90
24904;DHT22;12960;50.322;11.124;2022-07-10T00:50:10;13.20;99.90
24904;DHT22;12960;50.322;11.124;2022-07-10T00:51:14;13.20;99.90
24904;DHT22;12960;50.322;11.124;2022-07-10T00:52:17;13.20;99.90
24904;DHT22;12960;50.322;11.124;2022-07-10T00:53:18;13.20;99.90
24904;DHT22;12960;50.322;11.124;2022-07-10T00:54:19;13.20;99.90
24904;DHT22;12960;50.322;11.124;2022-07-10T00:55:21;13.20;99.90
24904;DHT22;12960;50.322;11.124;2022-07-10T00:56:24;13.20;99.90
24904;DHT22;12960;50.322;11.124;2022-07-10T00:57:25;13.10;99.90
24904;DHT22;12960;50.322;11.124;2022-07-10T00:58:26;13.10;99.90
24904;DHT22;12960;50.322;11.124;2022-07-10T00:59:28;13.10;99.90
24904;DHT22;12960;50.322;11.124;2022-07-10T01:00:30;13.00;99.90
24904;DHT22;12960;50.322;11.124;2022-07-10T01:01:32;13.00;1.00
24904;DHT22;12960;50.322;11.124;2022-07-10T01:02:34;12.90;1.00
24904;DHT22;12960;50.322;11.124;2022-07-10T01:03:38;12.90;1.00
24904;DHT22;12960;50.322;11.124;2022-07-10T01:04:39;12.80;1.00
24904;DHT22;12960;50.322;11.124;2022-07-10T01:05:40;12.70;1.00
24904;DHT22;12960;50.322;11.124;2022-07-10T01:06:41;12.70;1.00
24904;DHT22;12960;50.322;11.124;2022-07-10T01:07:42;12.70;1.00
24904;DHT22;12960;50.322;11.124;2022-07-10T01:08:44;12.70;1.00
24904;DHT22;12960;50.322;11.124;2022-07-10T01:09:51;12.70;1.00
24904;DHT22;12960;50.322;11.124;2022-07-10T01:10:52;12.80;1.00
24904;DHT22;12960;50.322;11.124;2022-07-10T01:12:02;12.80;1.00
24904;DHT22;12960;50.322;11.124;2022-07-10T01:13:04;12.80;1.00
24904;DHT22;12960;50.322;11.124;2022-07-10T01:14:05;12.80;1.00
24904;DHT22;12960;50.322;11.124;2022-07-10T01:15:07;12.70;1.00
24904;DHT22;12960;50.322;11.124;2022-07-10T01:16:08;12.60;1.00
24904;DHT22;12960;50.322;11.124;2022-07-10T01:17:13;12.60;1.00
24904;DHT22;12960;50.322;11.124;2022-07-10T01:18:14;12.50;1.00
24904;DHT22;12960;50.322;11.124;2022-07-10T01:19:16;12.50;1.00
24904;DHT22;12960;50.322;11.124;2022-07-10T01:20:17;12.40;1.00
24904;DHT22;12960;50.322;11.124;2022-07-10T01:21:43;12.40;1.00
24904;DHT22;12960;50.322;11.124;2022-07-10T01:22:45;12.30;1.00
24904;DHT22;12960;50.322;11.124;2022-07-10T01:23:46;12.30;1.00
24904;DHT22;12960;50.322;11.124;2022-07-10T01:24:47;12.30;1.00
24904;DHT22;12960;50.322;11.124;2022-07-10T01:25:50;12.30;1.00
24904;DHT22;12960;50.322;11.124;2022-07-10T01:26:52;12.30;17.90
24904;DHT22;12960;50.322;11.124;2022-07-10T01:27:53;12.20;1.00
24904;DHT22;12960;50.322;11.124;2022-07-10T01:28:55;12.20;1.00
24904;DHT22;12960;50.322;11.124;2022-07-10T01:29:56;12.20;7.00
24904;DHT22;12960;50.322;11.124;2022-07-10T01:30:58;12.10;10.00
24904;DHT22;12960;50.322;11.124;2022-07-10T01:31:59;12.10;18.30
24904;DHT22;12960;50.322;11.124;2022-07-10T01:33:01;12.10;1.00
24904;DHT22;12960;50.322;11.124;2022-07-10T01:34:05;12.20;1.00
24904;DHT22;12960;50.322;11.124;2022-07-10T01:35:07;12.20;1.00
24904;DHT22;12960;50.322;11.124;2022-07-10T01:36:12;12.20;1.00
24904;DHT22;12960;50.322;11.124;2022-07-10T01:37:13;12.10;1.00
24904;DHT22;12960;50.322;11.124;2022-07-10T01:38:14;12.10;1.00
24904;DHT22;12960;50.322;11.124;2022-07-10T01:39:15;12.20;1.00
24904;DHT22;12960;50.322;11.124;2022-07-10T01:40:19;12.30;1.00
24904;DHT22;12960;50.322;11.124;2022-07-10T01:41:20;12.50;1.00
24904;DHT22;12960;50.322;11.124;2022-07-10T01:42:21;12.50;1.00
24904;DHT22;12960;50.322;11.124;2022-07-10T01:43:22;12.50;99.90
24904;DHT22;12960;50.322;11.124;2022-07-10T01:44:23;12.50;99.90
24904;DHT22;12960;50.322;11.124;2022-07-10T01:45:25;12.40;1.00
24904;DHT22;12960;50.322;11.124;2022-07-10T01:46:26;12.40;1.00
24904;DHT22;12960;50.322;11.124;2022-07-10T01:47:27;12.30;1.00
24904;DHT22;12960;50.322;11.124;2022-07-10T01:48:30;12.30;1.00
24904;DHT22;12960;50.322;11.124;2022-07-10T01:49:31;12.20;1.00
24904;DHT22;12960;50.322;11.124;2022-07-10T01:50:32;12.20;1.00
24904;DHT22;12960;50.322;11.124;2022-07-10T01:51:36;12.20;1.00
24904;DHT22;12960;50.322;11.124;2022-07-10T01:52:37;12.10;1.00
24904;DHT22;12960;50.322;11.124;2022-07-10T01:53:39;12.20;1.00
24904;DHT22;12960;50.322;11.124;2022-07-10T01:54:49;12.10;1.00
24904;DHT22;12960;50.322;11.124;2022-07-10T01:55:50;12.20;1.00
24904;DHT22;12960;50.322;11.124;2022-07-10T01:56:51;12.10;1.00
24904;DHT22;12960;50.322;11.124;2022-07-10T01:57:52;12.10;1.00
24904;DHT22;12960;50.322;11.124;2022-07-10T01:58:54;12.10;1.00
24904;DHT22;12960;50.322;11.124;2022-07-10T01:59:55;12.10;1.00
24904;DHT22;12960;50.322;11.124;2022-07-10T02:00:56;12.10;1.00
24904;DHT22;12960;50.322;11.124;2022-07-10T02:01:57;12.10;1.00
24904;DHT22;12960;50.322;11.124;2022-07-10T02:02:58;12.20;99.90
24904;DHT22;12960;50.322;11.124;2022-07-10T02:04:18;12.20;99.90
24904;DHT22;12960;50.322;11.124;2022-07-10T02:05:38;12.20;99.90
24904;DHT22;12960;50.322;11.124;2022-07-10T02:06:39;12.30;99.90
24904;DHT22;12960;50.322;11.124;2022-07-10T02:07:40;12.40;99.90
24904;DHT22;12960;50.322;11.124;2022-07-10T02:08:43;12.40;99.90
24904;DHT22;12960;50.322;11.124;2022-07-10T02:09:45;12.40;99.90
24904;DHT22;12960;50.322;11.124;2022-07-10T02:10:46;12.40;99.90
24904;DHT22;12960;50.322;11.124;2022-07-10T02:11:47;12.40;99.90
24904;DHT22;12960;50.322;11.124;2022-07-10T02:12:48;12.40;99.90
24904;DHT22;12960;50.322;11.124;2022-07-10T02:13:49;12.40;99.90
24904;DHT22;12960;50.322;11.124;2022-07-10T02:14:54;12.40;99.90
24904;DHT22;12960;50.322;11.124;2022-07-10T02:15:59;12.40;99.90
24904;DHT22;12960;50.322;11.124;2022-07-10T02:17:00;12.40;99.90
24904;DHT22;12960;50.322;11.124;2022-07-10T02:18:02;12.40;99.90
24904;DHT22;12960;50.322;11.124;2022-07-10T02:19:03;12.40;99.90
24904;DHT22;12960;50.322;11.124;2022-07-10T02:20:04;12.30;99.90
24904;DHT22;12960;50.322;11.124;2022-07-10T02:21:05;12.30;99.90
24904;DHT22;12960;50.322;11.124;2022-07-10T02:22:07;12.30;99.90
24904;DHT22;12960;50.322;11.124;2022-07-10T02:23:08;12.30;33.30
24904;DHT22;12960;50.322;11.124;2022-07-10T02:24:22;12.30;95.70
24904;DHT22;12960;50.322;11.124;2022-07-10T02:25:22;12.30;99.90
24904;DHT22;12960;50.322;11.124;2022-07-10T02:26:24;12.30;99.90
24904;DHT22;12960;50.322;11.124;2022-07-10T02:27:26;12.30;99.90
24904;DHT22;12960;50.322;11.124;2022-07-10T02:28:29;12.30;99.90
24904;DHT22;12960;50.322;11.124;2022-07-10T02:29:33;12.30;99.90
24904;DHT22;12960;50.322;11.124;2022-07-10T02:30:35;12.30;99.90
24904;DHT22;12960;50.322;11.124;2022-07-10T02:31:45;12.30;99.90
24904;DHT22;12960;50.322;11.124;2022-07-10T02:32:46;12.30;99.90
24904;DHT22;12960;50.322;11.124;2022-07-10T02:33:47;12.20;99.90
24904;DHT22;12960;50.322;11.124;2022-07-10T02:34:48;12.20;99.90
24904;DHT22;12960;50.322;11.124;2022-07-10T02:35:49;12.20;99.90
24904;DHT22;12960;50.322;11.124;2022-07-10T02:36:50;12.20;99.90
24904;DHT22;12960;50.322;11.124;2022-07-10T02:37:51;12.10;99.90
24904;DHT22;12960;50.322;11.124;2022-07-10T02:38:55;12.10;99.90
24904;DHT22;12960;50.322;11.124;2022-07-10T02:39:56;12.10;99.90
24904;DHT22;12960;50.322;11.124;2022-07-10T02:40:57;12.00;99.90
24904;DHT22;12960;50.322;11.124;2022-07-10T02:41:58;12.00;99.90
24904;DHT22;12960;50.322;11.124;2022-07-10T02:42:59;11.90;99.90
24904;DHT22;12960;50.322;11.124;2022-07-10T02:44:03;12.00;99.90
24904;DHT22;12960;50.322;11.124;2022-07-10T02:45:04;12.00;99.90
24904;DHT22;12960;50.322;11.124;2022-07-10T02:46:05;12.00;99.90
24904;DHT22;12960;50.322;11.124;2022-07-10T02:47:06;12.10;92.20
24904;DHT22;12960;50.322;11.124;2022-07-10T02:48:07;12.20;1.00
24904;DHT22;12960;50.322;11.124;2022-07-10T02:49:08;12.20;1.00
24904;DHT22;12960;50.322;11.124;2022-07-10T02:50:09;12.10;1.00
24904;DHT22;12960;50.322;11.124;2022-07-10T02:51:11;12.10;1.00
24904;DHT22;12960;50.322;11.124;2022-07-10T02:52:12;12.10;57.80
24904;DHT22;12960;50.322;11.124;2022-07-10T02:53:13;12.00;50.50
24904;DHT22;12960;50.322;11.124;2022-07-10T02:54:14;12.00;67.00
24904;DHT22;12960;50.322;11.124;2022-07-10T02:55:15;12.00;1.70
24904;DHT22;12960;50.322;11.124;2022-07-10T02:56:16;12.00;1.00
24904;DHT22;12960;50.322;11.124;2022-07-10T02:57:17;12.00;73.10
24904;DHT22;12960;50.322;11.124;2022-07-10T02:58:18;12.00;1.00
24904;DHT22;12960;50.322;11.124;2022-07-10T02:59:23;12.00;58.40
24904;DHT22;12960;50.322;11.124;2022-07-10T03:00:27;12.00;5.40
24904;DHT22;12960;50.322;11.124;2022-07-10T03:01:28;12.00;30.00
24904;DHT22;12960;50.322;11.124;2022-07-10T03:02:29;12.00;21.70
24904;DHT22;12960;50.322;11.124;2022-07-10T03:03:33;12.00;24.20
24904;DHT22;12960;50.322;11.124;2022-07-10T03:04:34;12.00;1.00
24904;DHT22;12960;50.322;11.124;2022-07-10T03:05:35;12.00;1.00
24904;DHT22;12960;50.322;11.124;2022-07-10T03:06:36;12.00;1.00
24904;DHT22;12960;50.322;11.124;2022-07-10T03:07:37;12.00;1.00
24904;DHT22;12960;50.322;11.124;2022-07-10T03:08:38;12.00;1.00
24904;DHT22;12960;50.322;11.124;2022-07-10T03:09:40;12.00;1.00
24904;DHT22;12960;50.322;11.124;2022-07-10T03:10:43;12.00;1.00
24904;DHT22;12960;50.322;11.124;2022-07-10T03:11:47;12.00;1.00
24904;DHT22;12960;50.322;11.124;2022-07-10T03:12:48;11.90;1.00
24904;DHT22;12960;50.322;11.124;2022-07-10T03:13:49;11.90;1.00
24904;DHT22;12960;50.322;11.124;2022-07-10T03:14:50;11.90;1.00
24904;DHT22;12960;50.322;11.124;2022-07-10T03:15:54;11.90;1.00
24904;DHT22;12960;50.322;11.124;2022-07-10T03:16:55;11.90;1.00
24904;DHT22;12960;50.322;11.124;2022-07-10T03:17:56;11.90;1.00
24904;DHT22;12960;50.322;11.124;2022-07-10T03:18:57;11.90;87.80
24904;DHT22;12960;50.322;11.124;2022-07-10T03:19:58;11.80;99.90
24904;DHT22;12960;50.322;11.124;2022-07-10T03:20:59;11.60;99.90
24904;DHT22;12960;50.322;11.124;2022-07-10T03:22:00;11.60;99.90
24904;DHT22;12960;50.322;11.124;2022-07-10T03:23:04;11.50;1.00
24904;DHT22;12960;50.322;11.124;2022-07-10T03:24:05;11.30;1.00
24904;DHT22;12960;50.322;11.124;2022-07-10T03:25:07;11.30;1.00
24904;DHT22;12960;50.322;11.124;2022-07-10T03:26:08;11.20;1.00
24904;DHT22;12960;50.322;11.124;2022-07-10T03:27:09;11.10;1.00
24904;DHT22;12960;50.322;11.124;2022-07-10T03:28:14;11.00;1.00
24904;DHT22;12960;50.322;11.124;2022-07-10T03:29:15;10.90;4.40
24904;DHT22;12960;50.322;11.124;2022-07-10T03:30:16;10.90;26.70
24904;DHT22;12960;50.322;11.124;2022-07-10T03:31:20;10.90;34.30
24904;DHT22;12960;50.322;11.124;2022-07-10T03:32:21;10.80;92.10
24904;DHT22;12960;50.322;11.124;2022-07-10T03:33:22;10.80;99.90
24904;DHT22;12960;50.322;11.124;2022-07-10T03:34:23;10.80;99.90
24904;DHT22;12960;50.322;11.124;2022-07-10T03:35:24;10.80;99.90
24904;DHT22;12960;50.322;11.124;2022-07-10T03:36:26;10.80;99.90
24904;DHT22;12960;50.322;11.124;2022-07-10T03:37:27;10.70;99.90
24904;DHT22;12960;50.322;11.124;2022-07-10T03:38:28;10.80;99.90
24904;DHT22;12960;50.322;11.124;2022-07-10T03:39:29;10.80;99.90
24904;DHT22;12960;50.322;11.124;2022-07-10T03:40:30;10.80;99.90
24904;DHT22;12960;50.322;11.124;2022-07-10T03:41:31;10.80;99.90
24904;DHT22;12960;50.322;11.124;2022-07-10T03:42:32;10.80;99.90
24904;DHT22;12960;50.322;11.124;2022-07-10T03:43:33;10.90;99.90
24904;DHT22;12960;50.322;11.124;2022-07-10T03:44:34;10.90;99.90
24904;DHT22;12960;50.322;11.124;2022-07-10T03:45:38;10.90;99.90
24904;DHT22;12960;50.322;11.124;2022-07-10T03:46:39;10.90;99.90
24904;DHT22;12960;50.322;11.124;2022-07-10T03:47:41;10.90;99.90
24904;DHT22;12960;50.322;11.124;2022-07-10T03:48:41;10.90;99.90
24904;DHT22;12960;50.322;11.124;2022-07-10T03:49:42;10.90;99.90
24904;DHT22;12960;50.322;11.124;2022-07-10T03:50:44;10.90;99.90
24904;DHT22;12960;50.322;11.124;2022-07-10T03:51:45;10.90;99.90
24904;DHT22;12960;50.322;11.124;2022-07-10T03:52:46;10.90;92.30
24904;DHT22;12960;50.322;11.124;2022-07-10T03:53:47;10.90;99.90
24904;DHT22;12960;50.322;11.124;2022-07-10T03:54:53;10.90;99.90
24904;DHT22;12960;50.322;11.124;2022-07-10T03:55:55;11.00;99.90
24904;DHT22;12960;50.322;11.124;2022-07-10T03:56:59;11.00;95.20
24904;DHT22;12960;50.322;11.124;2022-07-10T03:58:19;11.00;54.70
24904;DHT22;12960;50.322;11.124;2022-07-10T03:59:20;11.10;71.00
24904;DHT22;12960;50.322;11.124;2022-07-10T04:00:25;11.10;28.80
24904;DHT22;12960;50.322;11.124;2022-07-10T04:01:27;11.10;27.20
24904;DHT22;12960;50.322;11.124;2022-07-10T04:02:28;11.10;64.70
24904;DHT22;12960;50.322;11.124;2022-07-10T04:03:29;11.10;69.50
24904;DHT22;12960;50.322;11.124;2022-07-10T04:04:30;11.20;15.40
24904;DHT22;12960;50.322;11.124;2022-07-10T04:05:32;11.10;1.00
24904;DHT22;12960;50.322;11.124;2022-07-10T04:06:33;11.20;1.00
24904;DHT22;12960;50.322;11.124;2022-07-10T04:07:37;11.10;1.00
24904;DHT22;12960;50.322;11.124;2022-07-10T04:08:38;11.10;1.00
24904;DHT22;12960;50.322;11.124;2022-07-10T04:09:39;11.20;13.50
24904;DHT22;12960;50.322;11.124;2022-07-10T04:10:40;11.10;1.60
24904;DHT22;12960;50.322;11.124;2022-07-10T04:11:41;11.20;16.10
24904;DHT22;12960;50.322;11.124;2022-07-10T04:12:43;11.20;1.00
24904;DHT22;12960;50.322;11.124;2022-07-10T04:13:44;11.20;1.00
24904;DHT22;12960;50.322;11.124;2022-07-10T04:14:45;11.20;1.00
24904;DHT22;12960;50.322;11.124;2022-07-10T04:15:48;11.20;12.50
24904;DHT22;12960;50.322;11.124;2022-07-10T04:16:49;11.20;1.00
24904;DHT22;12960;50.322;11.124;2022-07-10T04:17:50;11.30;1.00
24904;DHT22;12960;50.322;11.124;2022-07-10T04:18:51;11.30;4.00
24904;DHT22;12960;50.322;11.124;2022-07-10T04:19:55;11.40;1.00
24904;DHT22;12960;50.322;11.124;2022-07-10T04:20:56;11.40;1.00
24904;DHT22;12960;50.322;11.124;2022-07-10T04:21:57;11.40;1.00
24904;DHT22;12960;50.322;11.124;2022-07-10T04:22:58;11.50;1.00
24904;DHT22;12960;50.322;11.124;2022-07-10T04:24:00;11.50;1.00
24904;DHT22;12960;50.322;11.124;2022-07-10T04:25:01;11.60;1.00
24904;DHT22;12960;50.322;11.124;2022-07-10T04:26:08;11.50;1.00
24904;DHT22;12960;50.322;11.124;2022-07-10T04:27:09;11.60;1.00
24904;DHT22;12960;50.322;11.124;2022-07-10T04:28:10;11.50;1.00
24904;DHT22;12960;50.322;11.124;2022-07-10T04:29:11;11.50;1.00
24904;DHT22;12960;50.322;11.124;2022-07-10T04:30:12;11.50;1.00
24904;DHT22;12960;50.322;11.124;2022-07-10T04:31:13;11.50;1.00
24904;DHT22;12960;50.322;11.124;2022-07-10T04:32:17;11.40;1.00
24904;DHT22;12960;50.322;11.124;2022-07-10T04:33:21;11.40;1.00
24904;DHT22;12960;50.322;11.124;2022-07-10T04:34:25;11.40;1.00
24904;DHT22;12960;50.322;11.124;2022-07-10T04:35:26;11.40;1.00
24904;DHT22;12960;50.322;11.124;2022-07-10T04:36:27;11.40;1.00
24904;DHT22;12960;50.322;11.124;2022-07-10T04:37:28;11.40;1.00
24904;DHT22;12960;50.322;11.124;2022-07-10T04:38:29;11.40;1.00
24904;DHT22;12960;50.322;11.124;2022-07-10T04:39:32;11.50;71.60
24904;DHT22;12960;50.322;11.124;2022-07-10T04:40:33;11.50;1.00
24904;DHT22;12960;50.322;11.124;2022-07-10T04:41:34;11.60;1.00
24904;DHT22;12960;50.322;11.124;2022-07-10T04:42:36;11.60;1.00
24904;DHT22;12960;50.322;11.124;2022-07-10T04:43:37;11.70;1.00
24904;DHT22;12960;50.322;11.124;2022-07-10T04:44:40;11.70;1.00
24904;DHT22;12960;50.322;11.124;2022-07-10T04:45:41;11.80;1.00
24904;DHT22;12960;50.322;11.124;2022-07-10T04:46:42;11.80;1.00
24904;DHT22;12960;50.322;11.124;2022-07-10T04:47:43;11.80;1.00
24904;DHT22;12960;50.322;11.124;2022-07-10T04:48:44;11.80;1.00
24904;DHT22;12960;50.322;11.124;2022-07-10T04:49:45;11.80;1.00
24904;DHT22;12960;50.322;11.124;2022-07-10T04:50:46;11.80;1.00
24904;DHT22;12960;50.322;11.124;2022-07-10T04:51:48;11.80;1.00
24904;DHT22;12960;50.322;11.124;2022-07-10T04:52:52;12.00;1.00
24904;DHT22;12960;50.322;11.124;2022-07-10T04:53:53;12.00;1.00
24904;DHT22;12960;50.322;11.124;2022-07-10T04:54:54;12.00;1.00
24904;DHT22;12960;50.322;11.124;2022-07-10T04:55:55;12.10;1.00
24904;DHT22;12960;50.322;11.124;2022-07-10T04:56:59;12.20;1.00
24904;DHT22;12960;50.322;11.124;2022-07-10T04:58:01;12.20;99.90
24904;DHT22;12960;50.322;11.124;2022-07-10T04:59:02;12.30;99.90
24904;DHT22;12960;50.322;11.124;2022-07-10T05:00:04;12.40;99.90
24904;DHT22;12960;50.322;11.124;2022-07-10T05:01:05;12.40;99.90
24904;DHT22;12960;50.322;11.124;2022-07-10T05:02:06;12.50;99.90
24904;DHT22;12960;50.322;11.124;2022-07-10T05:03:09;12.60;99.90
24904;DHT22;12960;50.322;11.124;2022-07-10T05:04:10;12.70;1.00
24904;DHT22;12960;50.322;11.124;2022-07-10T05:05:11;12.60;1.00
24904;DHT22;12960;50.322;11.124;2022-07-10T05:06:12;12.70;1.00
24904;DHT22;12960;50.322;11.124;2022-07-10T05:07:13;12.70;1.00
24904;DHT22;12960;50.322;11.124;2022-07-10T05:08:15;12.60;99.90
24904;DHT22;12960;50.322;11.124;2022-07-10T05:09:16;12.60;99.90
24904;DHT22;12960;50.322;11.124;2022-07-10T05:10:20;12.70;99.90
24904;DHT22;12960;50.322;11.124;2022-07-10T05:11:22;12.70;99.90
24904;DHT22;12960;50.322;11.124;2022-07-10T05:12:23;12.80;99.90
24904;DHT22;12960;50.322;11.124;2022-07-10T05:13:24;12.80;99.90
24904;DHT22;12960;50.322;11.124;2022-07-10T05:14:25;12.80;99.90
24904;DHT22;12960;50.322;11.124;2022-07-10T05:15:26;12.80;99.90
24904;DHT22;12960;50.322;11.124;2022-07-10T05:16:27;12.90;99.90
24904;DHT22;12960;50.322;11.124;2022-07-10T05:17:28;12.90;1.00
24904;DHT22;12960;50.322;11.124;2022-07-10T05:18:29;13.00;1.00
24904;DHT22;12960;50.322;11.124;2022-07-10T05:19:30;13.00;1.00
24904;DHT22;12960;50.322;11.124;2022-07-10T05:20:31;13.00;1.00
24904;DHT22;12960;50.322;11.124;2022-07-10T05:21:34;13.00;1.00
24904;DHT22;12960;50.322;11.124;2022-07-10T05:22:35;13.10;99.90
24904;DHT22;12960;50.322;11.124;2022-07-10T05:23:37;13.10;99.90
24904;DHT22;12960;50.322;11.124;2022-07-10T05:24:39;13.10;1.00
24904;DHT22;12960;50.322;11.124;2022-07-10T05:25:43;13.10;99.90
24904;DHT22;12960;50.322;11.124;2022-07-10T05:26:44;13.10;99.90
24904;DHT22;12960;50.322;11.124;2022-07-10T05:27:45;13.00;99.90
24904;DHT22;12960;50.322;11.124;2022-07-10T05:28:46;12.90;99.90
24904;DHT22;12960;50.322;11.124;2022-07-10T05:29:47;12.80;1.00
24904;DHT22;12960;50.322;11.124;2022-07-10T05:30:48;12.80;1.00
24904;DHT22;12960;50.322;11.124;2022-07-10T05:31:52;12.80;99.90
24904;DHT22;12960;50.322;11.124;2022-07-10T05:32:53;12.70;99.90
24904;DHT22;12960;50.322;11.124;2022-07-10T05:33:54;12.70;99.90
24904;DHT22;12960;50.322;11.124;2022-07-10T05:34:57;12.70;99.90
24904;DHT22;12960;50.322;11.124;2022-07-10T05:35:59;12.70;99.90
24904;DHT22;12960;50.322;11.124;2022-07-10T05:37:00;12.70;1.00
24904;DHT22;12960;50.322;11.124;2022-07-10T05:38:01;12.70;1.00
24904;DHT22;12960;50.322;11.124;2022-07-10T05:39:02;12.70;1.00
24904;DHT22;12960;50.322;11.124;2022-07-10T05:40:04;12.70;1.00
24904;DHT22;12960;50.322;11.124;2022-07-10T05:41:05;12.70;1.00
24904;DHT22;12960;50.322;11.124;2022-07-10T05:42:06;12.70;73.20
24904;DHT22;12960;50.322;11.124;2022-07-10T05:43:07;12.70;1.00
24904;DHT22;12960;50.322;11.124;2022-07-10T05:44:08;12.70;1.00
24904;DHT22;12960;50.322;11.124;2022-07-10T05:45:10;12.70;99.90
24904;DHT22;12960;50.322;11.124;2022-07-10T05:46:11;12.70;99.90
24904;DHT22;12960;50.322;11.124;2022-07-10T05:47:12;12.70;99.90
24904;DHT22;12960;50.322;11.124;2022-07-10T05:48:16;12.70;1.00
24904;DHT22;12960;50.322;11.124;2022-07-10T05:49:17;12.70;1.00
24904;DHT22;12960;50.322;11.124;2022-07-10T05:50:18;12.80;99.90
24904;DHT22;12960;50.322;11.124;2022-07-10T05:51:22;12.90;54.80
24904;DHT22;12960;50.322;11.124;2022-07-10T05:52:23;13.00;99.90
24904;DHT22;12960;50.322;11.124;2022-07-10T05:53:24;13.10;96.70
24904;DHT22;12960;50.322;11.124;2022-07-10T05:54:25;13.20;1.00
24904;DHT22;12960;50.322;11.124;2022-07-10T05:55:26;13.30;99.90
24904;DHT22;12960;50.322;11.124;2022-07-10T05:56:28;13.40;1.00
24904;DHT22;12960;50.322;11.124;2022-07-10T05:57:35;13.50;1.00
24904;DHT22;12960;50.322;11.124;2022-07-10T05:58:36;13.60;99.90
24904;DHT22;12960;50.322;11.124;2022-07-10T05:59:37;13.60;99.90
24904;DHT22;12960;50.322;11.124;2022-07-10T06:00:41;13.50;99.90
24904;DHT22;12960;50.322;11.124;2022-07-10T06:01:44;13.40;99.90
24904;DHT22;12960;50.322;11.124;2022-07-10T06:02:45;13.60;99.90
24904;DHT22;12960;50.322;11.124;2022-07-10T06:03:46;13.60;1.00
24904;DHT22;12960;50.322;11.124;2022-07-10T06:04:47;13.70;41.70
24904;DHT22;12960;50.322;11.124;2022-07-10T06:05:48;13.60;1.00
24904;DHT22;12960;50.322;11.124;2022-07-10T06:06:49;13.60;99.90
24904;DHT22;12960;50.322;11.124;2022-07-10T06:07:50;13.50;1.00
24904;DHT22;12960;50.322;11.124;2022-07-10T06:08:51;13.40;1.00
24904;DHT22;12960;50.322;11.124;2022-07-10T06:09:53;13.40;99.90
24904;DHT22;12960;50.322;11.124;2022-07-10T06:10:55;13.30;99.90
24904;DHT22;12960;50.322;11.124;2022-07-10T06:11:56;13.30;1.00
24904;DHT22;12960;50.322;11.124;2022-07-10T06:12:57;13.30;1.00
24904;DHT22;12960;50.322;11.124;2022-07-10T06:13:58;13.30;1.00
24904;DHT22;12960;50.322;11.124;2022-07-10T06:14:59;13.30;99.90
24904;DHT22;12960;50.322;11.124;2022-07-10T06:16:03;13.30;1.00
24904;DHT22;12960;50.322;11.124;2022-07-10T06:17:05;13.30;1.00
24904;DHT22;12960;50.322;11.124;2022-07-10T06:18:06;13.30;57.90
24904;DHT22;12960;50.322;11.124;2022-07-10T06:19:07;13.40;1.00
24904;DHT22;12960;50.322;11.124;2022-07-10T06:20:08;13.40;1.00
24904;DHT22;12960;50.322;11.124;2022-07-10T06:21:10;13.50;99.90
24904;DHT22;12960;50.322;11.124;2022-07-10T06:22:14;13.50;1.00
24904;DHT22;12960;50.322;11.124;2022-07-10T06:23:34;13.60;1.00
24904;DHT22;12960;50.322;11.124;2022-07-10T06:24:35;13.50;1.00
24904;DHT22;12960;50.322;11.124;2022-07-10T06:25:36;13.40;99.90
24904;DHT22;12960;50.322;11.124;2022-07-10T06:26:37;13.50;99.90
24904;DHT22;12960;50.322;11.124;2022-07-10T06:27:38;13.60;9.90
24904;DHT22;12960;50.322;11.124;2022-07-10T06:28:39;13.60;1.00